sensor_id;sensor_type;location;lat;lon;timestamp;P1;durP1;ratioP1;P2;durP2;ratioP2
66425;SDS011;53237;46.158;14.604;2024-01-25T00:01:14;23.30;;;16.95;;
66425;SDS011;53237;46.158;14.604;2024-01-25T00:03:40;23.83;;;15.57;;
66425;SDS011;53237;46.158;14.604;2024-01-25T00:06:06;25.15;;;17.27;;
66425;SDS011;53237;46.158;14.604;2024-01-25T00:08:35;30.50;;;19.85;;
66425;SDS011;53237;46.158;14.604;2024-01-25T00:11:01;26.73;;;17.17;;
66425;SDS011;53237;46.158;14.604;2024-01-25T00:13:28;25.15;;;17.80;;
66425;SDS011;53237;46.158;14.604;2024-01-25T00:15:54;23.92;;;17.27;;
66425;SDS011;53237;46.158;14.604;2024-01-25T00:18:20;24.98;;;17.23;;
66425;SDS011;53237;46.158;14.604;2024-01-25T00:20:46;25.13;;;16.50;;
66425;SDS011;53237;46.158;14.604;2024-01-25T00:23:12;23.85;;;17.38;;
66425;SDS011;53237;46.158;14.604;2024-01-25T00:25:38;23.55;;;16.63;;
66425;SDS011;53237;46.158;14.604;2024-01-25T00:28:04;25.50;;;16.83;;
66425;SDS011;53237;46.158;14.604;2024-01-25T00:30:30;24.67;;;16.70;;
66425;SDS011;53237;46.158;14.604;2024-01-25T00:32:56;22.75;;;17.10;;
66425;SDS011;53237;46.158;14.604;2024-01-25T00:35:23;23.52;;;16.42;;
66425;SDS011;53237;46.158;14.604;2024-01-25T00:37:49;26.48;;;18.02;;
66425;SDS011;53237;46.158;14.604;2024-01-25T00:40:16;22.02;;;15.65;;
66425;SDS011;53237;46.158;14.604;2024-01-25T00:42:44;22.15;;;15.63;;
66425;SDS011;53237;46.158;14.604;2024-01-25T00:45:14;24.73;;;17.65;;
66425;SDS011;53237;46.158;14.604;2024-01-25T00:47:40;21.52;;;15.30;;
66425;SDS011;53237;46.158;14.604;2024-01-25T00:50:06;22.88;;;15.55;;
66425;SDS011;53237;46.158;14.604;2024-01-25T00:52:32;27.42;;;18.60;;
66425;SDS011;53237;46.158;14.604;2024-01-25T00:54:59;22.40;;;16.02;;
66425;SDS011;53237;46.158;14.604;2024-01-25T00:57:25;22.23;;;15.35;;
66425;SDS011;53237;46.158;14.604;2024-01-25T00:59:51;25.27;;;17.90;;
66425;SDS011;53237;46.158;14.604;2024-01-25T01:02:17;24.50;;;17.08;;
66425;SDS011;53237;46.158;14.604;2024-01-25T01:04:43;23.65;;;16.33;;
66425;SDS011;53237;46.158;14.604;2024-01-25T01:07:09;25.40;;;17.45;;
66425;SDS011;53237;46.158;14.604;2024-01-25T01:09:36;21.13;;;15.88;;
66425;SDS011;53237;46.158;14.604;2024-01-25T01:12:02;21.17;;;15.05;;
66425;SDS011;53237;46.158;14.604;2024-01-25T01:14:28;23.83;;;16.73;;
66425;SDS011;53237;46.158;14.604;2024-01-25T01:16:54;25.42;;;16.75;;
66425;SDS011;53237;46.158;14.604;2024-01-25T01:19:20;25.83;;;17.42;;
66425;SDS011;53237;46.158;14.604;2024-01-25T01:21:46;23.85;;;17.50;;
66425;SDS011;53237;46.158;14.604;2024-01-25T01:24:12;24.70;;;18.02;;
66425;SDS011;53237;46.158;14.604;2024-01-25T01:26:38;24.05;;;16.70;;
66425;SDS011;53237;46.158;14.604;2024-01-25T01:29:07;26.42;;;17.83;;
66425;SDS011;53237;46.158;14.604;2024-01-25T01:31:33;26.52;;;18.30;;
66425;SDS011;53237;46.158;14.604;2024-01-25T01:33:59;20.27;;;14.93;;
66425;SDS011;53237;46.158;14.604;2024-01-25T01:36:26;22.35;;;15.88;;
66425;SDS011;53237;46.158;14.604;2024-01-25T01:38:52;25.20;;;16.38;;
66425;SDS011;53237;46.158;14.604;2024-01-25T01:41:18;21.23;;;15.85;;
66425;SDS011;53237;46.158;14.604;2024-01-25T01:43:44;21.50;;;15.15;;
66425;SDS011;53237;46.158;14.604;2024-01-25T01:46:11;21.05;;;15.65;;
66425;SDS011;53237;46.158;14.604;2024-01-25T01:48:40;21.00;;;14.80;;
66425;SDS011;53237;46.158;14.604;2024-01-25T01:51:07;20.42;;;13.85;;
66425;SDS011;53237;46.158;14.604;2024-01-25T01:53:33;19.98;;;13.95;;
66425;SDS011;53237;46.158;14.604;2024-01-25T01:56:00;20.75;;;13.85;;
66425;SDS011;53237;46.158;14.604;2024-01-25T01:58:26;19.05;;;14.00;;
66425;SDS011;53237;46.158;14.604;2024-01-25T02:00:53;23.88;;;14.43;;
66425;SDS011;53237;46.158;14.604;2024-01-25T02:03:19;20.10;;;13.98;;
66425;SDS011;53237;46.158;14.604;2024-01-25T02:05:45;19.65;;;13.63;;
66425;SDS011;53237;46.158;14.604;2024-01-25T02:08:11;19.20;;;13.85;;
66425;SDS011;53237;46.158;14.604;2024-01-25T02:10:37;19.27;;;13.85;;
66425;SDS011;53237;46.158;14.604;2024-01-25T02:13:04;22.52;;;15.13;;
66425;SDS011;53237;46.158;14.604;2024-01-25T02:15:30;19.73;;;14.20;;
66425;SDS011;53237;46.158;14.604;2024-01-25T02:17:56;20.52;;;14.65;;
66425;SDS011;53237;46.158;14.604;2024-01-25T02:20:22;20.02;;;13.20;;
66425;SDS011;53237;46.158;14.604;2024-01-25T02:22:48;19.33;;;13.68;;
66425;SDS011;53237;46.158;14.604;2024-01-25T02:25:14;19.90;;;13.65;;
66425;SDS011;53237;46.158;14.604;2024-01-25T02:27:40;16.67;;;12.68;;
66425;SDS011;53237;46.158;14.604;2024-01-25T02:30:06;19.40;;;14.02;;
66425;SDS011;53237;46.158;14.604;2024-01-25T02:32:32;17.15;;;12.57;;
66425;SDS011;53237;46.158;14.604;2024-01-25T02:34:59;17.10;;;12.65;;
66425;SDS011;53237;46.158;14.604;2024-01-25T02:37:25;18.90;;;13.88;;
66425;SDS011;53237;46.158;14.604;2024-01-25T02:39:51;17.58;;;12.75;;
66425;SDS011;53237;46.158;14.604;2024-01-25T02:42:17;16.42;;;12.63;;
66425;SDS011;53237;46.158;14.604;2024-01-25T02:44:44;17.80;;;12.85;;
66425;SDS011;53237;46.158;14.604;2024-01-25T02:47:10;18.00;;;11.93;;
66425;SDS011;53237;46.158;14.604;2024-01-25T02:49:36;17.60;;;11.95;;
66425;SDS011;53237;46.158;14.604;2024-01-25T02:52:02;17.50;;;12.57;;
66425;SDS011;53237;46.158;14.604;2024-01-25T02:54:28;17.98;;;12.50;;
66425;SDS011;53237;46.158;14.604;2024-01-25T02:56:54;16.17;;;12.05;;
66425;SDS011;53237;46.158;14.604;2024-01-25T02:59:20;14.63;;;11.25;;
66425;SDS011;53237;46.158;14.604;2024-01-25T03:01:46;15.43;;;11.07;;
66425;SDS011;53237;46.158;14.604;2024-01-25T03:04:12;19.65;;;12.25;;
66425;SDS011;53237;46.158;14.604;2024-01-25T03:06:38;15.98;;;11.88;;
66425;SDS011;53237;46.158;14.604;2024-01-25T03:09:04;15.48;;;11.90;;
66425;SDS011;53237;46.158;14.604;2024-01-25T03:11:31;15.68;;;11.80;;
66425;SDS011;53237;46.158;14.604;2024-01-25T03:13:57;16.27;;;11.68;;
66425;SDS011;53237;46.158;14.604;2024-01-25T03:16:23;16.60;;;12.48;;
66425;SDS011;53237;46.158;14.604;2024-01-25T03:18:49;15.98;;;12.57;;
66425;SDS011;53237;46.158;14.604;2024-01-25T03:21:15;16.30;;;12.75;;
66425;SDS011;53237;46.158;14.604;2024-01-25T03:23:41;16.55;;;11.57;;
66425;SDS011;53237;46.158;14.604;2024-01-25T03:26:07;18.50;;;12.23;;
66425;SDS011;53237;46.158;14.604;2024-01-25T03:28:34;14.70;;;12.20;;
66425;SDS011;53237;46.158;14.604;2024-01-25T03:31:04;18.20;;;12.90;;
66425;SDS011;53237;46.158;14.604;2024-01-25T03:33:30;14.88;;;11.95;;
66425;SDS011;53237;46.158;14.604;2024-01-25T03:36:00;17.92;;;11.65;;
66425;SDS011;53237;46.158;14.604;2024-01-25T03:38:27;15.75;;;12.35;;
66425;SDS011;53237;46.158;14.604;2024-01-25T03:40:53;18.35;;;12.52;;
66425;SDS011;53237;46.158;14.604;2024-01-25T03:43:21;17.77;;;12.02;;
66425;SDS011;53237;46.158;14.604;2024-01-25T03:45:48;16.35;;;12.05;;
66425;SDS011;53237;46.158;14.604;2024-01-25T03:48:14;17.23;;;12.55;;
66425;SDS011;53237;46.158;14.604;2024-01-25T03:50:40;17.15;;;12.95;;
66425;SDS011;53237;46.158;14.604;2024-01-25T03:53:06;17.73;;;13.32;;
66425;SDS011;53237;46.158;14.604;2024-01-25T03:55:33;17.17;;;13.00;;
66425;SDS011;53237;46.158;14.604;2024-01-25T03:57:59;18.50;;;13.05;;
66425;SDS011;53237;46.158;14.604;2024-01-25T04:00:25;17.50;;;13.55;;
66425;SDS011;53237;46.158;14.604;2024-01-25T04:02:51;17.13;;;13.13;;
66425;SDS011;53237;46.158;14.604;2024-01-25T04:05:17;19.67;;;13.90;;
66425;SDS011;53237;46.158;14.604;2024-01-25T04:07:43;17.02;;;13.02;;
66425;SDS011;53237;46.158;14.604;2024-01-25T04:10:09;18.33;;;12.93;;
66425;SDS011;53237;46.158;14.604;2024-01-25T04:12:35;17.52;;;12.93;;
66425;SDS011;53237;46.158;14.604;2024-01-25T04:15:01;17.00;;;12.73;;
66425;SDS011;53237;46.158;14.604;2024-01-25T04:17:28;17.88;;;12.93;;
66425;SDS011;53237;46.158;14.604;2024-01-25T04:19:54;17.58;;;13.43;;
66425;SDS011;53237;46.158;14.604;2024-01-25T04:22:20;16.42;;;12.35;;
66425;SDS011;53237;46.158;14.604;2024-01-25T04:24:46;18.13;;;12.85;;
66425;SDS011;53237;46.158;14.604;2024-01-25T04:27:13;18.83;;;12.82;;
66425;SDS011;53237;46.158;14.604;2024-01-25T04:32:36;19.63;;;14.55;;
66425;SDS011;53237;46.158;14.604;2024-01-25T04:35:03;19.25;;;13.50;;
66425;SDS011;53237;46.158;14.604;2024-01-25T04:37:29;17.15;;;12.90;;
66425;SDS011;53237;46.158;14.604;2024-01-25T04:39:55;17.30;;;13.68;;
66425;SDS011;53237;46.158;14.604;2024-01-25T04:42:21;20.02;;;13.95;;
66425;SDS011;53237;46.158;14.604;2024-01-25T04:44:47;19.58;;;14.52;;
66425;SDS011;53237;46.158;14.604;2024-01-25T04:47:13;20.95;;;14.20;;
66425;SDS011;53237;46.158;14.604;2024-01-25T04:49:39;19.30;;;14.07;;
66425;SDS011;53237;46.158;14.604;2024-01-25T04:52:05;17.23;;;13.20;;
66425;SDS011;53237;46.158;14.604;2024-01-25T04:54:32;21.70;;;14.30;;
66425;SDS011;53237;46.158;14.604;2024-01-25T04:56:58;18.35;;;13.43;;
66425;SDS011;53237;46.158;14.604;2024-01-25T04:59:24;17.88;;;13.23;;
66425;SDS011;53237;46.158;14.604;2024-01-25T05:01:50;17.13;;;13.18;;
66425;SDS011;53237;46.158;14.604;2024-01-25T05:04:18;17.13;;;13.13;;
66425;SDS011;53237;46.158;14.604;2024-01-25T05:06:44;19.95;;;13.27;;
66425;SDS011;53237;46.158;14.604;2024-01-25T05:09:10;18.05;;;13.82;;
66425;SDS011;53237;46.158;14.604;2024-01-25T05:11:40;17.58;;;13.50;;
66425;SDS011;53237;46.158;14.604;2024-01-25T05:14:06;20.33;;;13.55;;
66425;SDS011;53237;46.158;14.604;2024-01-25T05:16:32;19.13;;;13.32;;
66425;SDS011;53237;46.158;14.604;2024-01-25T05:19:00;27.27;;;17.60;;
66425;SDS011;53237;46.158;14.604;2024-01-25T05:21:26;19.40;;;14.00;;
66425;SDS011;53237;46.158;14.604;2024-01-25T05:23:52;32.78;;;20.88;;
66425;SDS011;53237;46.158;14.604;2024-01-25T05:26:18;22.13;;;15.45;;
66425;SDS011;53237;46.158;14.604;2024-01-25T05:28:44;18.60;;;14.32;;
66425;SDS011;53237;46.158;14.604;2024-01-25T05:31:10;18.75;;;14.13;;
66425;SDS011;53237;46.158;14.604;2024-01-25T05:33:39;20.60;;;14.60;;
66425;SDS011;53237;46.158;14.604;2024-01-25T05:36:06;19.08;;;13.75;;
66425;SDS011;53237;46.158;14.604;2024-01-25T05:38:32;20.02;;;14.55;;
66425;SDS011;53237;46.158;14.604;2024-01-25T05:40:58;19.17;;;14.00;;
66425;SDS011;53237;46.158;14.604;2024-01-25T05:43:25;30.83;;;21.67;;
66425;SDS011;53237;46.158;14.604;2024-01-25T05:45:51;29.20;;;21.42;;
66425;SDS011;53237;46.158;14.604;2024-01-25T05:48:17;22.15;;;15.55;;
66425;SDS011;53237;46.158;14.604;2024-01-25T05:50:43;22.10;;;15.95;;
66425;SDS011;53237;46.158;14.604;2024-01-25T05:53:09;22.85;;;15.45;;
66425;SDS011;53237;46.158;14.604;2024-01-25T05:55:35;20.85;;;15.23;;
66425;SDS011;53237;46.158;14.604;2024-01-25T05:58:01;21.08;;;15.43;;
66425;SDS011;53237;46.158;14.604;2024-01-25T06:00:27;23.15;;;14.75;;
66425;SDS011;53237;46.158;14.604;2024-01-25T06:02:53;20.92;;;14.52;;
66425;SDS011;53237;46.158;14.604;2024-01-25T06:05:19;20.65;;;14.77;;
66425;SDS011;53237;46.158;14.604;2024-01-25T06:07:45;22.05;;;14.50;;
66425;SDS011;53237;46.158;14.604;2024-01-25T06:10:13;18.95;;;14.20;;
66425;SDS011;53237;46.158;14.604;2024-01-25T06:12:39;19.88;;;14.27;;
66425;SDS011;53237;46.158;14.604;2024-01-25T06:15:06;21.17;;;14.68;;
66425;SDS011;53237;46.158;14.604;2024-01-25T06:17:32;20.02;;;14.55;;
66425;SDS011;53237;46.158;14.604;2024-01-25T06:19:58;17.85;;;13.88;;
66425;SDS011;53237;46.158;14.604;2024-01-25T06:22:24;20.58;;;14.32;;
66425;SDS011;53237;46.158;14.604;2024-01-25T06:24:50;20.55;;;14.45;;
66425;SDS011;53237;46.158;14.604;2024-01-25T06:27:16;19.73;;;14.13;;
66425;SDS011;53237;46.158;14.604;2024-01-25T06:29:42;20.90;;;13.75;;
66425;SDS011;53237;46.158;14.604;2024-01-25T06:32:08;19.73;;;13.57;;
66425;SDS011;53237;46.158;14.604;2024-01-25T06:34:35;18.00;;;13.02;;
66425;SDS011;53237;46.158;14.604;2024-01-25T06:37:01;20.02;;;14.77;;
66425;SDS011;53237;46.158;14.604;2024-01-25T06:39:27;19.85;;;14.10;;
66425;SDS011;53237;46.158;14.604;2024-01-25T06:41:53;19.88;;;13.70;;
66425;SDS011;53237;46.158;14.604;2024-01-25T06:44:19;17.60;;;13.38;;
66425;SDS011;53237;46.158;14.604;2024-01-25T06:46:45;21.80;;;16.13;;
66425;SDS011;53237;46.158;14.604;2024-01-25T06:49:11;23.40;;;15.55;;
66425;SDS011;53237;46.158;14.604;2024-01-25T06:51:37;19.35;;;14.63;;
66425;SDS011;53237;46.158;14.604;2024-01-25T06:54:03;21.70;;;15.43;;
66425;SDS011;53237;46.158;14.604;2024-01-25T06:56:29;20.33;;;14.98;;
66425;SDS011;53237;46.158;14.604;2024-01-25T06:58:56;19.90;;;14.77;;
66425;SDS011;53237;46.158;14.604;2024-01-25T07:01:22;19.42;;;14.32;;
66425;SDS011;53237;46.158;14.604;2024-01-25T07:03:49;23.38;;;15.05;;
66425;SDS011;53237;46.158;14.604;2024-01-25T07:06:16;21.30;;;15.50;;
66425;SDS011;53237;46.158;14.604;2024-01-25T07:08:42;21.95;;;15.32;;
66425;SDS011;53237;46.158;14.604;2024-01-25T07:11:08;24.50;;;19.23;;
66425;SDS011;53237;46.158;14.604;2024-01-25T07:13:35;21.42;;;16.00;;
66425;SDS011;53237;46.158;14.604;2024-01-25T07:16:01;26.58;;;18.33;;
66425;SDS011;53237;46.158;14.604;2024-01-25T07:18:27;21.35;;;15.82;;
66425;SDS011;53237;46.158;14.604;2024-01-25T07:20:53;25.40;;;17.73;;
66425;SDS011;53237;46.158;14.604;2024-01-25T07:23:20;20.77;;;15.82;;
66425;SDS011;53237;46.158;14.604;2024-01-25T07:25:46;28.00;;;19.35;;
66425;SDS011;53237;46.158;14.604;2024-01-25T07:28:12;25.67;;;18.33;;
66425;SDS011;53237;46.158;14.604;2024-01-25T07:30:38;23.90;;;17.00;;
66425;SDS011;53237;46.158;14.604;2024-01-25T07:33:04;24.05;;;17.77;;
66425;SDS011;53237;46.158;14.604;2024-01-25T07:35:31;26.50;;;17.80;;
66425;SDS011;53237;46.158;14.604;2024-01-25T07:37:57;25.73;;;17.27;;
66425;SDS011;53237;46.158;14.604;2024-01-25T07:40:23;25.42;;;17.10;;
66425;SDS011;53237;46.158;14.604;2024-01-25T07:42:49;26.85;;;18.50;;
66425;SDS011;53237;46.158;14.604;2024-01-25T07:45:15;35.33;;;23.15;;
66425;SDS011;53237;46.158;14.604;2024-01-25T07:47:42;26.70;;;18.05;;
66425;SDS011;53237;46.158;14.604;2024-01-25T07:50:09;33.33;;;22.67;;
66425;SDS011;53237;46.158;14.604;2024-01-25T07:52:35;30.55;;;18.52;;
66425;SDS011;53237;46.158;14.604;2024-01-25T07:55:01;48.50;;;31.90;;
66425;SDS011;53237;46.158;14.604;2024-01-25T07:57:27;26.98;;;19.63;;
66425;SDS011;53237;46.158;14.604;2024-01-25T07:59:53;30.35;;;20.80;;
66425;SDS011;53237;46.158;14.604;2024-01-25T08:02:19;31.40;;;20.70;;
66425;SDS011;53237;46.158;14.604;2024-01-25T08:04:45;33.03;;;23.17;;
66425;SDS011;53237;46.158;14.604;2024-01-25T08:07:11;29.45;;;20.38;;
66425;SDS011;53237;46.158;14.604;2024-01-25T08:09:37;26.35;;;19.05;;
66425;SDS011;53237;46.158;14.604;2024-01-25T08:12:03;28.25;;;20.83;;
66425;SDS011;53237;46.158;14.604;2024-01-25T08:14:29;29.45;;;19.90;;
66425;SDS011;53237;46.158;14.604;2024-01-25T08:16:56;28.60;;;20.38;;
66425;SDS011;53237;46.158;14.604;2024-01-25T08:19:22;29.15;;;20.92;;
66425;SDS011;53237;46.158;14.604;2024-01-25T08:21:48;31.35;;;20.55;;
66425;SDS011;53237;46.158;14.604;2024-01-25T08:24:14;31.55;;;21.30;;
66425;SDS011;53237;46.158;14.604;2024-01-25T08:26:40;32.88;;;20.35;;
66425;SDS011;53237;46.158;14.604;2024-01-25T08:29:06;32.80;;;22.33;;
66425;SDS011;53237;46.158;14.604;2024-01-25T08:31:32;27.88;;;21.33;;
66425;SDS011;53237;46.158;14.604;2024-01-25T08:33:58;31.08;;;21.73;;
66425;SDS011;53237;46.158;14.604;2024-01-25T08:36:24;34.22;;;23.63;;
66425;SDS011;53237;46.158;14.604;2024-01-25T08:38:51;35.55;;;22.77;;
66425;SDS011;53237;46.158;14.604;2024-01-25T08:41:17;53.47;;;34.58;;
66425;SDS011;53237;46.158;14.604;2024-01-25T08:43:43;33.75;;;24.25;;
66425;SDS011;53237;46.158;14.604;2024-01-25T08:46:09;35.60;;;26.23;;
66425;SDS011;53237;46.158;14.604;2024-01-25T08:48:35;42.10;;;28.17;;
66425;SDS011;53237;46.158;14.604;2024-01-25T08:51:01;38.42;;;26.77;;
66425;SDS011;53237;46.158;14.604;2024-01-25T08:53:27;43.88;;;28.88;;
66425;SDS011;53237;46.158;14.604;2024-01-25T08:55:53;38.80;;;28.10;;
66425;SDS011;53237;46.158;14.604;2024-01-25T08:58:20;41.63;;;28.42;;
66425;SDS011;53237;46.158;14.604;2024-01-25T09:00:46;35.63;;;25.55;;
66425;SDS011;53237;46.158;14.604;2024-01-25T09:06:15;36.45;;;26.48;;
66425;SDS011;53237;46.158;14.604;2024-01-25T09:08:42;32.00;;;22.90;;
66425;SDS011;53237;46.158;14.604;2024-01-25T09:11:08;35.50;;;23.85;;
66425;SDS011;53237;46.158;14.604;2024-01-25T09:13:34;38.75;;;27.50;;
66425;SDS011;53237;46.158;14.604;2024-01-25T09:16:00;37.42;;;24.75;;
66425;SDS011;53237;46.158;14.604;2024-01-25T09:18:25;45.63;;;28.35;;
66425;SDS011;53237;46.158;14.604;2024-01-25T09:20:51;34.53;;;24.85;;
66425;SDS011;53237;46.158;14.604;2024-01-25T09:23:17;34.00;;;23.50;;
66425;SDS011;53237;46.158;14.604;2024-01-25T09:25:44;34.33;;;25.48;;
66425;SDS011;53237;46.158;14.604;2024-01-25T09:28:10;31.05;;;23.70;;
66425;SDS011;53237;46.158;14.604;2024-01-25T09:30:41;29.98;;;22.95;;
66425;SDS011;53237;46.158;14.604;2024-01-25T09:33:07;28.90;;;22.42;;
66425;SDS011;53237;46.158;14.604;2024-01-25T09:35:33;30.25;;;22.98;;
66425;SDS011;53237;46.158;14.604;2024-01-25T09:37:59;32.28;;;23.02;;
66425;SDS011;53237;46.158;14.604;2024-01-25T09:40:25;30.20;;;22.58;;
66425;SDS011;53237;46.158;14.604;2024-01-25T09:42:51;32.67;;;24.95;;
66425;SDS011;53237;46.158;14.604;2024-01-25T09:45:18;30.83;;;22.73;;
66425;SDS011;53237;46.158;14.604;2024-01-25T09:47:45;28.83;;;22.15;;
66425;SDS011;53237;46.158;14.604;2024-01-25T09:50:11;29.60;;;21.40;;
66425;SDS011;53237;46.158;14.604;2024-01-25T09:52:38;34.65;;;25.45;;
66425;SDS011;53237;46.158;14.604;2024-01-25T09:55:07;38.05;;;26.23;;
66425;SDS011;53237;46.158;14.604;2024-01-25T09:57:35;40.22;;;30.05;;
66425;SDS011;53237;46.158;14.604;2024-01-25T10:00:02;28.92;;;22.45;;
66425;SDS011;53237;46.158;14.604;2024-01-25T10:02:30;32.30;;;24.35;;
66425;SDS011;53237;46.158;14.604;2024-01-25T10:04:56;38.35;;;29.95;;
66425;SDS011;53237;46.158;14.604;2024-01-25T10:07:41;29.77;;;24.00;;
66425;SDS011;53237;46.158;14.604;2024-01-25T10:10:07;34.10;;;25.95;;
66425;SDS011;53237;46.158;14.604;2024-01-25T10:12:34;27.60;;;22.10;;
66425;SDS011;53237;46.158;14.604;2024-01-25T10:15:00;28.98;;;23.05;;
66425;SDS011;53237;46.158;14.604;2024-01-25T10:17:27;36.83;;;26.55;;
66425;SDS011;53237;46.158;14.604;2024-01-25T10:19:55;28.88;;;23.55;;
66425;SDS011;53237;46.158;14.604;2024-01-25T10:22:21;27.58;;;22.52;;
66425;SDS011;53237;46.158;14.604;2024-01-25T10:24:47;26.63;;;22.52;;
66425;SDS011;53237;46.158;14.604;2024-01-25T10:27:15;27.67;;;23.38;;
66425;SDS011;53237;46.158;14.604;2024-01-25T10:29:41;26.50;;;22.33;;
66425;SDS011;53237;46.158;14.604;2024-01-25T10:32:10;29.67;;;22.67;;
66425;SDS011;53237;46.158;14.604;2024-01-25T10:34:37;31.23;;;24.38;;
66425;SDS011;53237;46.158;14.604;2024-01-25T10:37:06;26.80;;;21.75;;
66425;SDS011;53237;46.158;14.604;2024-01-25T10:39:33;28.13;;;23.25;;
66425;SDS011;53237;46.158;14.604;2024-01-25T10:41:59;28.50;;;22.10;;
66425;SDS011;53237;46.158;14.604;2024-01-25T10:44:25;27.63;;;21.60;;
66425;SDS011;53237;46.158;14.604;2024-01-25T10:46:51;28.15;;;23.38;;
66425;SDS011;53237;46.158;14.604;2024-01-25T10:49:19;34.42;;;28.50;;
66425;SDS011;53237;46.158;14.604;2024-01-25T10:51:45;29.45;;;25.95;;
66425;SDS011;53237;46.158;14.604;2024-01-25T10:54:12;26.90;;;21.90;;
66425;SDS011;53237;46.158;14.604;2024-01-25T10:56:42;25.67;;;21.08;;
66425;SDS011;53237;46.158;14.604;2024-01-25T10:59:08;25.23;;;21.80;;
66425;SDS011;53237;46.158;14.604;2024-01-25T11:01:36;29.77;;;25.27;;
66425;SDS011;53237;46.158;14.604;2024-01-25T11:04:02;31.58;;;25.98;;
66425;SDS011;53237;46.158;14.604;2024-01-25T11:06:28;30.23;;;25.27;;
66425;SDS011;53237;46.158;14.604;2024-01-25T11:09:04;34.33;;;27.63;;
66425;SDS011;53237;46.158;14.604;2024-01-25T11:11:31;40.20;;;32.78;;
66425;SDS011;53237;46.158;14.604;2024-01-25T11:13:58;37.85;;;31.73;;
66425;SDS011;53237;46.158;14.604;2024-01-25T11:16:31;26.83;;;23.13;;
66425;SDS011;53237;46.158;14.604;2024-01-25T11:19:00;29.65;;;24.35;;
66425;SDS011;53237;46.158;14.604;2024-01-25T11:21:44;26.92;;;22.45;;
66425;SDS011;53237;46.158;14.604;2024-01-25T11:24:21;33.40;;;25.98;;
66425;SDS011;53237;46.158;14.604;2024-01-25T11:26:47;29.65;;;23.30;;
66425;SDS011;53237;46.158;14.604;2024-01-25T11:29:17;31.50;;;25.20;;
66425;SDS011;53237;46.158;14.604;2024-01-25T11:31:46;30.55;;;24.02;;
66425;SDS011;53237;46.158;14.604;2024-01-25T11:34:13;28.40;;;23.27;;
66425;SDS011;53237;46.158;14.604;2024-01-25T11:36:40;27.58;;;23.80;;
66425;SDS011;53237;46.158;14.604;2024-01-25T11:39:08;29.40;;;23.40;;
66425;SDS011;53237;46.158;14.604;2024-01-25T11:41:34;31.27;;;23.98;;
66425;SDS011;53237;46.158;14.604;2024-01-25T11:44:01;28.98;;;24.60;;
66425;SDS011;53237;46.158;14.604;2024-01-25T11:46:28;37.70;;;29.65;;
66425;SDS011;53237;46.158;14.604;2024-01-25T11:48:54;31.10;;;25.88;;
66425;SDS011;53237;46.158;14.604;2024-01-25T11:51:20;26.50;;;23.33;;
66425;SDS011;53237;46.158;14.604;2024-01-25T11:53:46;31.48;;;27.30;;
66425;SDS011;53237;46.158;14.604;2024-01-25T11:56:14;31.45;;;26.48;;
66425;SDS011;53237;46.158;14.604;2024-01-25T11:58:41;28.38;;;23.02;;
66425;SDS011;53237;46.158;14.604;2024-01-25T12:01:08;30.13;;;25.92;;
66425;SDS011;53237;46.158;14.604;2024-01-25T12:03:34;29.02;;;24.83;;
66425;SDS011;53237;46.158;14.604;2024-01-25T12:06:04;30.67;;;26.20;;
66425;SDS011;53237;46.158;14.604;2024-01-25T12:08:31;29.40;;;24.80;;
66425;SDS011;53237;46.158;14.604;2024-01-25T12:13:38;26.58;;;22.98;;
66425;SDS011;53237;46.158;14.604;2024-01-25T12:16:05;26.17;;;22.17;;
66425;SDS011;53237;46.158;14.604;2024-01-25T12:18:31;27.45;;;24.02;;
66425;SDS011;53237;46.158;14.604;2024-01-25T12:21:02;25.98;;;22.67;;
66425;SDS011;53237;46.158;14.604;2024-01-25T12:23:38;26.45;;;23.15;;
66425;SDS011;53237;46.158;14.604;2024-01-25T12:26:05;32.67;;;27.60;;
66425;SDS011;53237;46.158;14.604;2024-01-25T12:28:31;25.88;;;22.10;;
66425;SDS011;53237;46.158;14.604;2024-01-25T12:30:58;26.77;;;22.67;;
66425;SDS011;53237;46.158;14.604;2024-01-25T12:33:24;27.98;;;24.42;;
66425;SDS011;53237;46.158;14.604;2024-01-25T12:35:50;28.23;;;22.40;;
66425;SDS011;53237;46.158;14.604;2024-01-25T12:38:16;26.88;;;22.90;;
66425;SDS011;53237;46.158;14.604;2024-01-25T12:40:43;24.30;;;20.40;;
66425;SDS011;53237;46.158;14.604;2024-01-25T12:43:11;28.20;;;22.98;;
66425;SDS011;53237;46.158;14.604;2024-01-25T12:45:37;26.30;;;22.27;;
66425;SDS011;53237;46.158;14.604;2024-01-25T12:48:03;28.67;;;22.17;;
66425;SDS011;53237;46.158;14.604;2024-01-25T12:50:31;25.48;;;21.80;;
66425;SDS011;53237;46.158;14.604;2024-01-25T12:52:58;25.75;;;21.98;;
66425;SDS011;53237;46.158;14.604;2024-01-25T12:55:24;26.40;;;22.02;;
66425;SDS011;53237;46.158;14.604;2024-01-25T12:57:50;25.95;;;22.15;;
66425;SDS011;53237;46.158;14.604;2024-01-25T13:00:16;26.33;;;21.75;;
66425;SDS011;53237;46.158;14.604;2024-01-25T13:02:42;33.08;;;26.83;;
66425;SDS011;53237;46.158;14.604;2024-01-25T13:05:08;26.13;;;23.17;;
66425;SDS011;53237;46.158;14.604;2024-01-25T13:07:34;29.50;;;25.23;;
66425;SDS011;53237;46.158;14.604;2024-01-25T13:10:00;26.38;;;22.63;;
66425;SDS011;53237;46.158;14.604;2024-01-25T13:12:26;29.00;;;24.38;;
66425;SDS011;53237;46.158;14.604;2024-01-25T13:14:52;24.55;;;20.73;;
66425;SDS011;53237;46.158;14.604;2024-01-25T13:17:18;30.42;;;26.83;;
66425;SDS011;53237;46.158;14.604;2024-01-25T13:19:46;25.17;;;21.58;;
66425;SDS011;53237;46.158;14.604;2024-01-25T13:22:12;26.58;;;22.27;;
66425;SDS011;53237;46.158;14.604;2024-01-25T13:24:38;33.05;;;26.55;;
66425;SDS011;53237;46.158;14.604;2024-01-25T13:27:05;32.45;;;26.63;;
66425;SDS011;53237;46.158;14.604;2024-01-25T13:29:31;31.35;;;26.10;;
66425;SDS011;53237;46.158;14.604;2024-01-25T13:31:57;27.83;;;23.23;;
66425;SDS011;53237;46.158;14.604;2024-01-25T13:34:22;41.80;;;32.88;;
66425;SDS011;53237;46.158;14.604;2024-01-25T13:36:49;24.52;;;21.33;;
66425;SDS011;53237;46.158;14.604;2024-01-25T13:39:15;32.08;;;26.35;;
66425;SDS011;53237;46.158;14.604;2024-01-25T13:41:41;27.00;;;23.38;;
66425;SDS011;53237;46.158;14.604;2024-01-25T13:44:07;31.20;;;25.83;;
66425;SDS011;53237;46.158;14.604;2024-01-25T13:46:33;34.28;;;28.13;;
66425;SDS011;53237;46.158;14.604;2024-01-25T13:48:59;28.40;;;24.20;;
66425;SDS011;53237;46.158;14.604;2024-01-25T13:51:25;25.95;;;21.88;;
66425;SDS011;53237;46.158;14.604;2024-01-25T13:53:51;27.20;;;23.73;;
66425;SDS011;53237;46.158;14.604;2024-01-25T13:56:17;25.65;;;21.73;;
66425;SDS011;53237;46.158;14.604;2024-01-25T13:58:43;27.50;;;23.45;;
66425;SDS011;53237;46.158;14.604;2024-01-25T14:01:09;28.75;;;24.52;;
66425;SDS011;53237;46.158;14.604;2024-01-25T14:03:35;26.55;;;22.65;;
66425;SDS011;53237;46.158;14.604;2024-01-25T14:06:01;28.35;;;23.80;;
66425;SDS011;53237;46.158;14.604;2024-01-25T14:08:29;28.08;;;22.73;;
66425;SDS011;53237;46.158;14.604;2024-01-25T14:10:55;30.33;;;25.92;;
66425;SDS011;53237;46.158;14.604;2024-01-25T14:13:21;34.42;;;28.67;;